首页
METAR-TAF:

METAR-TAF

机场 :

Grosse Ile Municipal Airport

底特律 / Grosse Ile, 密歇根州, 美国

纬度: 42-05-55N, 经度: 083-09-40W, 海拔: 180米

当前天气观测

该预报发布于23分钟前的16:35 UTC
静风
温度 5°C
湿度 75%
气压 1023 hPa
能見度: 11.3公里
阴天层高于2700英尺

METAR: KONZ 201635Z AUTO 00000KT 7SM OVC027 05/01 A3020 RMK AO2 T00470013

时间: 11:58 (16:58 UTC)


TAF: 丢失

超过4000个机场的气象观测和天气预报(METAR&TAF报告)。

可查询的气象台以黄色和红色小点在地图上表示。

将鼠标移到小点上方,可查看气象台名称。

然后点击查看天气观测和预报。

如需切换地图:点击带黑十字的绿色按钮放大地图;点击带横线的绿色按钮缩小地图;或者点击绿色箭头查看邻近地区的地图。


METAR-TAF: